Time;durP1;ratioP1;P1;durP2;ratioP2;P2;SDS_P1;SDS_P2;PMS_P1;PMS_P2;Temp;Humidity;BMP_temperature;BMP_pressure;BME280_temperature;BME280_humidity;BME280_pressure;Samples;Min_cycle;Max_cycle;Signal;HPM_P1;HPM_P2
2022/02/17 00:00:35;;;;;;;100.65;67.28;;;;;;;7.63;68.83;99536.19;4978738;28;20018;-95
2022/02/17 00:03:00;;;;;;;99.88;69.28;;;;;;;6.82;68.37;99423.75;4978425;28;20480;-92
2022/02/17 00:05:27;;;;;;;96.38;69.40;;;;;;;7.22;68.95;99453.78;4978619;28;20032;-94
2022/02/17 00:07:54;;;;;;;91.15;64.45;;;;;;;7.60;68.65;99505.81;4978509;28;20030;-94
2022/02/17 00:10:23;;;;;;;98.25;64.43;;;;;;;7.58;68.56;99488.56;4978349;28;20034;-94
2022/02/17 00:12:49;;;;;;;89.32;61.50;;;;;;;7.27;68.70;99460.22;4978748;28;20129;-93
2022/02/17 00:15:15;;;;;;;92.57;63.95;;;;;;;7.37;68.49;99482.88;4978466;28;20045;-94
2022/02/17 00:17:41;;;;;;;94.65;65.20;;;;;;;6.75;68.27;99367.66;4978399;28;20121;-94
2022/02/17 00:20:06;;;;;;;102.18;68.97;;;;;;;7.17;68.32;99467.38;4978419;28;20029;-94
2022/02/17 00:22:32;;;;;;;93.72;60.83;;;;;;;7.19;68.71;99461.97;4978415;28;20033;-93
2022/02/17 00:24:57;;;;;;;90.82;61.20;;;;;;;6.97;68.26;99411.69;4978568;28;20484;-93
2022/02/17 00:27:23;;;;;;;92.43;63.22;;;;;;;7.00;68.49;99421.88;4978691;28;20030;-94
2022/02/17 00:29:48;;;;;;;90.68;62.30;;;;;;;7.00;68.86;99440.25;4978570;28;20033;-94
2022/02/17 00:32:13;;;;;;;91.65;61.85;;;;;;;7.06;68.60;99454.53;4978446;28;20046;-94
2022/02/17 00:34:39;;;;;;;106.07;72.20;;;;;;;6.85;68.71;99394.59;4978810;28;20073;-94
2022/02/17 00:37:05;;;;;;;98.20;64.60;;;;;;;6.80;68.56;99402.09;4996077;28;20026;-94
2022/02/17 00:39:35;;;;;;;95.93;67.75;;;;;;;6.87;68.30;99405.75;4978761;28;20025;-95
2022/02/17 00:42:02;;;;;;;103.47;74.22;;;;;;;7.02;67.88;99408.59;4978094;28;20090;-94
2022/02/17 00:44:29;;;;;;;96.10;66.38;;;;;;;7.36;68.34;99468.09;4977890;28;20116;-95
2022/02/17 00:46:57;;;;;;;96.75;66.80;;;;;;;6.21;68.40;99316.38;4978358;28;20069;-93
2022/02/17 00:49:24;;;;;;;89.22;58.65;;;;;;;6.92;67.96;99392.16;4978181;28;20494;-95
2022/02/17 00:51:49;;;;;;;87.25;59.78;;;;;;;6.77;68.08;99389.31;4977098;28;20117;-95
2022/02/17 00:54:15;;;;;;;88.63;58.58;;;;;;;6.75;67.98;99395.69;4995728;28;20062;-94
2022/02/17 00:56:41;;;;;;;80.93;56.63;;;;;;;7.08;67.90;99438.63;4978082;28;20030;-94
2022/02/17 00:59:06;;;;;;;80.38;53.92;;;;;;;6.38;68.27;99341.72;4978043;28;20018;-93
2022/02/17 01:01:31;;;;;;;78.80;52.95;;;;;;;6.92;67.81;99421.84;4977989;28;20022;-94
2022/02/17 01:03:57;;;;;;;73.43;52.20;;;;;;;6.83;67.80;99408.84;4978090;28;20030;-95
2022/02/17 01:06:22;;;;;;;74.13;49.80;;;;;;;6.19;67.80;99311.28;4977802;28;20093;-94
2022/02/17 01:08:48;;;;;;;64.28;46.90;;;;;;;6.64;67.86;99391.50;4977570;28;20044;-94
2022/02/17 01:11:13;;;;;;;59.00;40.40;;;;;;;6.49;67.75;99370.28;4977655;28;20036;-93
2022/02/17 01:13:39;;;;;;;64.85;44.17;;;;;;;6.37;68.00;99345.31;4977791;28;20069;-94
2022/02/17 01:16:05;;;;;;;57.75;39.88;;;;;;;5.83;67.74;99307.91;4977671;28;20050;-94
2022/02/17 01:18:31;;;;;;;65.47;43.80;;;;;;;6.65;67.57;99404.47;4977589;28;20054;-93
2022/02/17 01:20:56;;;;;;;60.05;40.75;;;;;;;6.21;67.54;99332.94;4977741;28;20027;-95
2022/02/17 01:23:22;;;;;;;61.47;41.63;;;;;;;6.82;67.62;99439.50;4977565;28;20037;-94
2022/02/17 01:25:47;;;;;;;60.55;41.75;;;;;;;6.75;67.56;99432.41;4977495;28;20136;-93
2022/02/17 01:28:13;;;;;;;59.55;40.88;;;;;;;6.33;67.47;99357.09;4977493;28;20030;-94
2022/02/17 01:30:38;;;;;;;55.92;38.15;;;;;;;6.18;67.56;99329.81;4977217;28;20467;-94
2022/02/17 01:33:04;;;;;;;58.28;39.65;;;;;;;6.51;67.11;99385.88;4977211;28;20114;-94
2022/02/17 01:35:29;;;;;;;55.53;37.28;;;;;;;6.42;67.61;99394.66;4977248;28;20053;-93
2022/02/17 01:37:55;;;;;;;57.53;37.72;;;;;;;5.54;67.36;99249.75;4977203;28;20037;-95
2022/02/17 01:40:21;;;;;;;55.90;39.92;;;;;;;6.05;67.29;99346.75;4977009;28;20125;-94
2022/02/17 01:42:46;;;;;;;54.97;38.45;;;;;;;6.33;67.63;99381.50;4976805;28;20029;-95
2022/02/17 01:45:13;;;;;;;57.28;39.60;;;;;;;5.88;67.05;99317.91;4976877;28;20503;-94
2022/02/17 01:47:42;;;;;;;61.53;42.45;;;;;;;6.26;67.16;99369.16;4976857;28;20037;-94
2022/02/17 01:50:07;;;;;;;57.45;40.47;;;;;;;5.22;66.66;99232.00;4976966;28;20061;-93
2022/02/17 01:52:33;;;;;;;60.33;42.72;;;;;;;6.37;67.50;99388.09;4976947;28;20058;-93
2022/02/17 01:54:58;;;;;;;55.78;38.88;;;;;;;5.79;66.78;99308.38;4976942;28;20052;-94
2022/02/17 01:57:26;;;;;;;56.08;38.40;;;;;;;6.53;67.17;99418.81;4976859;28;20026;-93
2022/02/17 01:59:52;;;;;;;52.80;36.80;;;;;;;5.85;67.05;99313.81;4976972;28;20026;-94
2022/02/17 02:02:17;;;;;;;57.58;39.25;;;;;;;6.22;67.01;99407.97;4976506;28;20557;-95
2022/02/17 02:04:43;;;;;;;55.83;38.35;;;;;;;5.52;67.15;99280.50;4976505;28;20030;-94
2022/02/17 02:07:10;;;;;;;52.25;37.47;;;;;;;5.93;66.89;99382.03;4976735;28;20030;-96
2022/02/17 02:09:37;;;;;;;54.50;38.75;;;;;;;6.10;67.03;99384.78;4977058;28;20034;-94
2022/02/17 02:12:03;;;;;;;57.50;40.60;;;;;;;6.05;66.91;99385.25;4976856;28;20030;-93
2022/02/17 02:14:29;;;;;;;51.35;36.85;;;;;;;5.32;67.34;99262.34;4976461;28;20120;-94
2022/02/17 02:16:56;;;;;;;56.42;39.67;;;;;;;6.08;67.06;99392.81;4976494;28;20108;-93
2022/02/17 02:19:22;;;;;;;50.53;36.97;;;;;;;5.70;67.27;99339.75;4976505;28;20447;-94
2022/02/17 02:21:48;;;;;;;53.95;37.75;;;;;;;5.23;67.05;99259.81;4976578;28;20034;-94
2022/02/17 02:24:13;;;;;;;51.63;37.10;;;;;;;5.34;67.04;99278.72;4976488;28;20032;-94
2022/02/17 02:26:39;;;;;;;58.63;39.75;;;;;;;5.82;66.75;99360.44;4976262;28;20049;-94
2022/02/17 02:29:04;;;;;;;53.53;40.30;;;;;;;6.16;66.80;99402.53;4976170;28;20033;-94
2022/02/17 02:31:32;;;;;;;56.70;38.45;;;;;;;5.74;67.06;99320.13;4976443;28;20032;-95
2022/02/17 02:33:58;;;;;;;55.67;39.53;;;;;;;5.93;66.68;99357.63;4976175;28;20040;-94
2022/02/17 02:36:23;;;;;;;54.97;38.42;;;;;;;6.29;66.75;99411.63;4976624;28;20038;-94
2022/02/17 02:38:49;;;;;;;55.25;36.65;;;;;;;5.21;66.80;99251.31;4976155;28;20026;-93
2022/02/17 02:41:15;;;;;;;64.15;43.13;;;;;;;6.30;66.89;99447.38;4976087;28;20058;-95
2022/02/17 02:43:40;;;;;;;64.15;43.03;;;;;;;6.08;66.78;99373.63;4993185;28;20037;-93
2022/02/17 02:46:07;;;;;;;63.92;44.35;;;;;;;4.66;66.48;99176.41;4976204;28;20026;-94
2022/02/17 02:48:33;;;;;;;62.88;43.08;;;;;;;5.30;66.42;99281.81;4976202;28;20038;-95
2022/02/17 02:50:58;;;;;;;64.30;42.33;;;;;;;5.70;66.68;99365.94;4976710;28;20059;-93
2022/02/17 02:53:24;;;;;;;59.55;40.05;;;;;;;4.96;66.96;99243.22;4976150;28;20026;-94
2022/02/17 02:55:50;;;;;;;62.97;42.38;;;;;;;5.22;66.63;99260.78;4975936;28;20022;-94
2022/02/17 02:58:18;;;;;;;63.67;42.30;;;;;;;5.00;66.48;99236.69;4975923;28;20022;-94
2022/02/17 03:00:45;;;;;;;72.25;45.40;;;;;;;5.60;66.77;99317.22;4976003;28;20120;-94
2022/02/17 03:03:12;;;;;;;70.43;46.85;;;;;;;6.11;66.34;99396.91;4975953;28;20120;-95
2022/02/17 03:05:39;;;;;;;63.45;42.75;;;;;;;5.95;66.43;99389.75;4975973;28;20062;-94
2022/02/17 03:08:05;;;;;;;62.83;41.97;;;;;;;5.94;66.54;99365.31;4975763;28;20030;-94
2022/02/17 03:10:31;;;;;;;60.92;41.65;;;;;;;5.15;66.35;99257.09;4975760;28;20037;-94
2022/02/17 03:12:59;;;;;;;66.22;43.95;;;;;;;5.82;66.45;99348.19;4975772;28;20034;-94
2022/02/17 03:15:26;;;;;;;63.60;42.90;;;;;;;5.03;66.10;99264.34;4975291;28;20065;-95
2022/02/17 03:17:52;;;;;;;59.47;41.67;;;;;;;6.13;65.98;99382.69;4975934;28;20030;-94
2022/02/17 03:20:18;;;;;;;60.53;41.70;;;;;;;5.88;66.09;99349.38;4975689;28;20057;-94
2022/02/17 03:22:44;;;;;;;60.60;40.75;;;;;;;6.02;65.83;99354.94;4975893;28;20502;-95
2022/02/17 03:25:11;;;;;;;59.88;39.17;;;;;;;6.11;66.31;99355.81;4975779;28;20034;-95
2022/02/17 03:27:37;;;;;;;60.35;40.72;;;;;;;5.75;66.09;99284.28;4975871;28;20558;-94
2022/02/17 03:30:08;;;;;;;59.58;43.88;;;;;;;6.13;65.86;99353.03;4975811;28;20034;-96
2022/02/17 03:32:34;;;;;;;62.85;41.15;;;;;;;6.02;66.35;99381.13;5000741;28;20015;-93
2022/02/17 03:35:00;;;;;;;61.90;43.00;;;;;;;5.26;66.16;99272.59;5001540;28;20015;-92
2022/02/17 03:37:26;;;;;;;66.55;47.78;;;;;;;6.00;66.15;99387.50;4993099;28;20462;-95
2022/02/17 03:39:51;;;;;;;63.58;41.97;;;;;;;4.84;66.41;99217.41;4978897;28;20035;-95
2022/02/17 03:42:17;;;;;;;62.85;43.00;;;;;;;5.18;66.45;99275.13;4976833;28;20505;-94
2022/02/17 03:44:42;;;;;;;67.47;46.80;;;;;;;5.58;66.32;99333.09;4975414;28;20030;-96
2022/02/17 03:47:08;;;;;;;60.80;45.22;;;;;;;5.90;66.04;99398.06;4975208;28;20038;-94
2022/02/17 03:49:34;;;;;;;67.57;46.95;;;;;;;5.29;66.60;99278.38;4975188;28;20121;-94
2022/02/17 03:51:59;;;;;;;63.15;45.20;;;;;;;4.33;66.12;99136.03;4974881;28;20040;-93
2022/02/17 03:54:25;;;;;;;61.70;44.13;;;;;;;4.70;65.78;99174.31;4975176;28;20072;-93
2022/02/17 03:56:50;;;;;;;68.00;44.17;;;;;;;5.37;66.50;99272.38;4975242;28;20070;-95
2022/02/17 03:59:15;;;;;;;62.47;43.25;;;;;;;5.10;66.01;99232.22;4974732;28;20049;-95
2022/02/17 04:01:41;;;;;;;62.30;42.83;;;;;;;5.87;66.22;99358.19;4974968;28;20404;-94
2022/02/17 04:04:09;;;;;;;65.72;44.80;;;;;;;5.82;66.04;99387.47;4975027;28;20538;-94
2022/02/17 04:06:35;;;;;;;67.90;42.67;;;;;;;5.62;66.12;99360.63;4975179;28;20026;-94
2022/02/17 04:09:03;;;;;;;64.53;46.13;;;;;;;5.27;66.27;99324.81;4974829;28;20077;-95
2022/02/17 04:11:28;;;;;;;63.70;44.08;;;;;;;5.40;66.31;99324.44;4977139;28;20431;-95
2022/02/17 04:13:54;;;;;;;65.72;45.85;;;;;;;5.36;65.96;99312.63;4979851;28;20105;-94
2022/02/17 04:16:19;;;;;;;65.25;46.08;;;;;;;5.65;65.86;99349.84;4979608;28;20034;-95
2022/02/17 04:18:46;;;;;;;66.22;46.65;;;;;;;5.66;65.66;99341.00;4979240;28;20026;-94
2022/02/17 04:21:13;;;;;;;67.85;46.85;;;;;;;5.87;65.75;99359.03;4975841;28;20141;-95
2022/02/17 04:23:44;;;;;;;73.77;50.17;;;;;;;5.86;65.59;99373.09;4975197;28;20034;-94
2022/02/17 04:26:13;;;;;;;63.65;44.70;;;;;;;5.30;65.65;99315.84;4976696;28;20101;-94
2022/02/17 04:28:39;;;;;;;61.00;44.73;;;;;;;5.32;65.32;99283.28;4978607;28;20081;-94
2022/02/17 04:31:06;;;;;;;60.07;39.43;;;;;;;5.79;65.37;99361.59;4978818;28;20034;-93
2022/02/17 04:33:33;;;;;;;52.67;38.03;;;;;;;5.72;65.19;99398.03;4978757;28;20034;-94
2022/02/17 04:35:58;;;;;;;55.63;38.67;;;;;;;4.57;65.19;99215.69;4978710;28;20030;-94
2022/02/17 04:38:23;;;;;;;65.80;46.90;;;;;;;5.58;65.60;99382.84;4978879;28;20030;-94
2022/02/17 04:43:33;;;;;;;57.20;40.08;;;;;;;5.00;65.50;99314.38;4997009;28;20475;-92
2022/02/17 04:45:59;;;;;;;63.90;43.33;;;;;;;5.36;65.57;99380.69;4978608;28;20030;-93
2022/02/17 04:48:24;;;;;;;58.97;41.37;;;;;;;4.93;65.25;99292.38;4978781;28;20087;-92
2022/02/17 04:50:50;;;;;;;61.63;41.77;;;;;;;4.01;65.62;99135.69;4979109;28;20030;-93
2022/02/17 04:53:15;;;;;;;66.03;44.30;;;;;;;4.87;65.45;99290.38;4983731;28;20022;-91
2022/02/17 04:55:41;;;;;;;66.27;47.17;;;;;;;5.07;65.47;99300.53;4985158;28;20022;-91
2022/02/17 04:58:06;;;;;;;68.93;46.30;;;;;;;4.56;65.36;99230.56;4980552;28;20077;-93
2022/02/17 05:00:32;;;;;;;68.75;45.83;;;;;;;5.02;65.59;99294.94;4978490;28;20555;-93
2022/02/17 05:02:57;;;;;;;67.82;48.45;;;;;;;5.42;65.55;99359.13;4978896;28;20030;-95
2022/02/17 05:05:23;;;;;;;66.53;48.58;;;;;;;5.41;65.08;99370.59;4978708;28;20034;-93
2022/02/17 05:07:51;;;;;;;71.07;50.97;;;;;;;4.29;65.35;99194.78;4978935;28;20561;-93
2022/02/17 05:10:16;;;;;;;78.00;52.30;;;;;;;5.46;65.21;99360.47;4978399;28;20034;-93
2022/02/17 05:12:42;;;;;;;66.47;47.43;;;;;;;5.42;64.99;99354.72;4978394;28;20096;-93
2022/02/17 05:15:08;;;;;;;70.15;47.38;;;;;;;3.75;65.28;99099.81;4980775;28;20033;-92
2022/02/17 05:17:41;;;;;;;68.17;47.70;;;;;;;5.40;65.00;99382.03;4980640;28;20029;-93
2022/02/17 05:22:53;;;;;;;75.00;53.90;;;;;;;3.67;65.02;99138.84;5075344;23;20050;-93
2022/02/17 05:25:19;;;;;;;82.60;58.30;;;;;;;3.98;64.77;99164.72;4986128;28;20022;-92
2022/02/17 05:27:44;;;;;;;93.28;65.28;;;;;;;4.02;65.24;99186.97;4999470;28;20033;-91
2022/02/17 05:30:10;;;;;;;98.45;68.32;;;;;;;5.25;65.04;99367.81;4980035;28;20022;-91
2022/02/17 05:32:46;;;;;;;114.45;80.30;;;;;;;4.99;64.69;99321.41;4996742;28;20388;-91
2022/02/17 05:35:12;;;;;;;92.15;65.10;;;;;;;4.76;64.87;99280.94;4998778;28;20471;-92
2022/02/17 05:37:42;;;;;;;77.43;53.72;;;;;;;4.75;64.78;99295.81;4979665;28;20030;-90
2022/02/17 05:40:10;;;;;;;76.60;53.47;;;;;;;3.82;64.64;99115.72;4998448;28;20104;-91
2022/02/17 05:42:36;;;;;;;66.85;48.85;;;;;;;4.78;65.00;99328.69;4983417;28;20026;-90
2022/02/17 05:45:03;;;;;;;66.67;49.77;;;;;;;4.42;64.99;99224.00;4998179;28;20049;-92
2022/02/17 05:47:29;;;;;;;70.38;49.75;;;;;;;5.29;64.72;99354.28;4998123;28;20023;-89
2022/02/17 05:49:54;;;;;;;66.25;51.97;;;;;;;4.05;64.82;99171.81;4983244;28;20066;-89
2022/02/17 05:52:23;;;;;;;71.23;53.50;;;;;;;4.62;64.71;99271.78;5007191;28;20030;-89
2022/02/17 05:54:48;;;;;;;75.80;54.40;;;;;;;4.00;64.86;99144.50;4988551;28;20040;-89
2022/02/17 05:57:14;;;;;;;77.20;56.73;;;;;;;3.45;64.51;99040.03;5004207;28;20046;-90
2022/02/17 05:59:39;;;;;;;79.87;59.17;;;;;;;4.16;64.16;99183.84;4996931;28;20018;-92
2022/02/17 06:02:05;;;;;;;82.33;59.57;;;;;;;3.74;64.13;99085.13;4978295;28;20397;-92
2022/02/17 06:04:31;;;;;;;81.60;57.17;;;;;;;4.51;64.84;99221.50;4978970;28;20038;-90
2022/02/17 06:06:59;;;;;;;85.67;62.40;;;;;;;3.70;64.12;99077.69;4978024;28;20022;-92
2022/02/17 06:09:24;;;;;;;86.27;63.23;;;;;;;5.36;64.48;99386.75;4977081;28;20065;-92
2022/02/17 06:11:49;;;;;;;91.87;66.37;;;;;;;5.39;64.24;99362.06;4978271;28;20089;-90
2022/02/17 06:14:15;;;;;;;85.57;64.03;;;;;;;3.80;64.00;99126.31;4978065;28;20030;-92
2022/02/17 06:16:41;;;;;;;89.90;65.57;;;;;;;3.19;63.84;98998.97;4996337;28;20057;-90
2022/02/17 06:19:07;;;;;;;88.10;65.17;;;;;;;3.94;64.23;99121.56;4997310;28;20057;-91
2022/02/17 06:21:32;;;;;;;93.23;65.27;;;;;;;5.46;64.20;99333.47;4996576;28;20124;-90
2022/02/17 06:24:01;;;;;;;85.80;63.83;;;;;;;4.31;63.96;99169.31;4978626;28;20070;-93
2022/02/17 06:26:27;;;;;;;88.90;61.17;;;;;;;5.52;64.19;99338.94;4977153;28;20049;-94
2022/02/17 06:28:52;;;;;;;88.60;63.27;;;;;;;4.24;63.78;99134.31;4977507;28;20038;-95
2022/02/17 06:31:18;;;;;;;92.20;65.20;;;;;;;5.60;64.07;99365.19;4977065;28;20022;-93
2022/02/17 06:33:44;;;;;;;88.10;61.47;;;;;;;5.10;63.62;99250.53;4977270;28;20022;-93
2022/02/17 06:36:13;;;;;;;93.22;67.47;;;;;;;4.47;64.07;99190.44;4977019;28;20057;-93
2022/02/17 06:38:39;;;;;;;90.63;67.43;;;;;;;4.55;63.83;99184.47;4964723;28;20030;-93
2022/02/17 06:41:04;;;;;;;88.53;63.67;;;;;;;5.55;63.82;99282.81;4976402;28;20022;-94
2022/02/17 06:43:33;;;;;;;84.63;63.80;;;;;;;4.86;63.70;99198.00;4964997;28;20070;-93
2022/02/17 06:45:58;;;;;;;86.00;62.67;;;;;;;4.52;63.75;99108.13;4956804;28;20034;-94
2022/02/17 06:48:24;;;;;;;93.15;67.88;;;;;;;4.64;63.80;99144.34;4956623;28;20039;-94
2022/02/17 06:50:49;;;;;;;100.33;71.70;;;;;;;5.80;63.92;99289.88;4956389;28;20034;-94
2022/02/17 06:53:15;;;;;;;95.77;71.27;;;;;;;5.46;63.88;99211.25;4956774;28;20037;-94
2022/02/17 06:55:40;;;;;;;93.07;70.07;;;;;;;5.91;63.69;99302.75;4957426;28;20459;-94
2022/02/17 06:58:05;;;;;;;98.60;71.70;;;;;;;5.11;63.57;99126.56;4959831;28;20039;-95
2022/02/17 07:00:31;;;;;;;94.35;72.32;;;;;;;5.42;63.94;99171.47;4967141;28;20027;-94
2022/02/17 07:02:57;;;;;;;93.97;67.05;;;;;;;5.37;63.52;99154.56;4964927;28;20062;-94
2022/02/17 07:05:25;;;;;;;98.40;72.57;;;;;;;5.91;63.85;99221.53;4960764;28;20030;-96
2022/02/17 07:07:51;;;;;;;92.43;65.65;;;;;;;4.80;63.83;99067.81;4964885;28;20451;-94
2022/02/17 07:13:06;;;;;;;94.75;68.22;;;;;;;5.79;63.82;99152.00;4947471;28;20054;-95
2022/02/17 07:15:35;;;;;;;90.67;66.83;;;;;;;6.12;64.21;99210.66;4956578;28;20061;-95
2022/02/17 07:18:10;;;;;;;104.25;75.22;;;;;;;5.90;63.75;99190.22;4959416;28;20034;-95
2022/02/17 07:20:37;;;;;;;104.13;75.03;;;;;;;5.36;63.63;99103.19;4960399;28;20076;-96
2022/02/17 07:23:03;;;;;;;91.82;64.65;;;;;;;5.97;63.50;99201.75;4976565;28;20031;-93
2022/02/17 07:25:29;;;;;;;92.15;67.65;;;;;;;6.59;63.10;99262.63;4976091;28;20030;-94
2022/02/17 07:27:55;;;;;;;92.68;67.45;;;;;;;6.64;63.34;99278.69;4975461;28;20109;-94
2022/02/17 07:30:20;;;;;;;96.53;71.82;;;;;;;5.89;62.81;99151.88;4974693;28;20503;-93
2022/02/17 07:32:46;;;;;;;101.85;73.78;;;;;;;5.85;62.95;99150.56;4955958;28;20026;-93
2022/02/17 07:35:11;;;;;;;95.60;70.88;;;;;;;6.10;62.96;99175.94;4956145;28;20080;-93
2022/02/17 07:37:38;;;;;;;98.85;72.68;;;;;;;6.87;62.61;99253.53;4956170;28;20062;-93
2022/02/17 07:40:06;;;;;;;98.28;72.00;;;;;;;7.00;63.13;99267.00;4972873;28;20488;-93
2022/02/17 07:42:31;;;;;;;94.65;68.75;;;;;;;6.42;62.95;99167.34;4972803;28;20042;-93
2022/02/17 07:44:59;;;;;;;97.80;72.00;;;;;;;5.82;62.66;99072.28;4981782;28;20044;-92
2022/02/17 07:47:24;;;;;;;98.45;69.57;;;;;;;6.62;63.07;99191.47;4969698;28;20034;-92
2022/02/17 07:49:50;;;;;;;102.40;68.55;;;;;;;6.16;62.63;99086.19;4955561;28;20046;-93
2022/02/17 07:52:15;;;;;;;96.70;66.38;;;;;;;7.27;62.24;99247.50;4955549;28;20027;-92
2022/02/17 07:54:41;;;;;;;94.60;65.15;;;;;;;6.60;63.00;99135.72;4972977;28;20077;-93
2022/02/17 07:57:06;;;;;;;93.10;67.30;;;;;;;6.99;62.90;99196.31;4955613;28;20061;-92
2022/02/17 07:59:32;;;;;;;99.10;65.75;;;;;;;6.03;62.86;99009.84;4972974;28;20489;-92
2022/02/17 08:01:57;;;;;;;101.20;68.25;;;;;;;6.96;62.55;99155.44;4975654;28;20109;-92
2022/02/17 08:04:23;;;;;;;104.82;70.68;;;;;;;7.43;62.52;99230.09;4976655;28;20027;-91
2022/02/17 08:06:48;;;;;;;90.82;63.80;;;;;;;7.02;62.43;99153.97;4963804;28;20039;-90
2022/02/17 08:09:14;;;;;;;96.28;60.45;;;;;;;7.37;62.30;99186.94;5000655;28;20038;-91
2022/02/17 08:11:39;;;;;;;105.82;64.65;;;;;;;7.65;62.58;99235.50;4984482;28;20042;-91
2022/02/17 08:14:05;;;;;;;102.40;71.32;;;;;;;7.20;62.83;99149.38;4971528;28;20034;-91
2022/02/17 08:16:30;;;;;;;105.57;72.63;;;;;;;8.00;62.75;99265.00;4958322;28;20110;-93
2022/02/17 08:18:56;;;;;;;99.95;69.35;;;;;;;7.67;62.79;99187.22;4976212;28;20061;-93
2022/02/17 08:21:21;;;;;;;95.80;68.32;;;;;;;8.04;63.07;99255.78;4972285;28;20105;-94
2022/02/17 08:23:47;;;;;;;95.80;66.68;;;;;;;7.69;62.96;99172.94;4977835;28;20034;-92
2022/02/17 08:26:13;;;;;;;107.45;74.05;;;;;;;7.72;63.11;99185.72;4978180;28;20479;-93
2022/02/17 08:28:38;;;;;;;85.30;59.65;;;;;;;7.66;62.81;99144.38;4972039;28;20037;-91
2022/02/17 08:31:04;;;;;;;63.30;45.67;;;;;;;8.21;62.87;99231.13;4981411;28;20054;-90
2022/02/17 08:33:29;;;;;;;63.72;48.53;;;;;;;8.54;63.51;99250.22;4958307;28;20027;-90
2022/02/17 08:35:55;;;;;;;61.83;46.92;;;;;;;8.01;63.72;99189.59;4959302;28;20061;-90
2022/02/17 08:38:20;;;;;;;59.60;48.15;;;;;;;8.56;63.37;99234.28;4984837;28;20030;-91
2022/02/17 08:40:46;;;;;;;61.45;44.30;;;;;;;7.69;63.65;99095.91;4987085;28;20042;-90
2022/02/17 08:43:13;;;;;;;63.22;45.83;;;;;;;8.38;63.38;99187.16;4999256;28;20034;-90
2022/02/17 08:45:43;;;;;;;56.45;42.60;;;;;;;9.03;62.78;99265.75;4983684;28;20026;-86
2022/02/17 08:48:10;;;;;;;61.72;46.95;;;;;;;8.51;62.50;99168.19;4987733;28;20034;-87
2022/02/17 08:50:39;;;;;;;58.50;44.65;;;;;;;8.45;62.39;99142.56;4980931;28;20029;-87
2022/02/17 08:53:04;;;;;;;60.42;44.30;;;;;;;8.67;62.19;99191.78;4979428;28;20031;-87
2022/02/17 08:55:29;;;;;;;58.35;43.05;;;;;;;9.09;62.31;99232.66;4978901;28;20034;-88
2022/02/17 08:57:55;;;;;;;62.15;47.70;;;;;;;8.69;62.14;99171.34;4958453;28;20033;-87
2022/02/17 09:00:21;;;;;;;52.88;42.90;;;;;;;8.36;61.81;99107.63;4961777;28;20022;-89
2022/02/17 09:02:46;;;;;;;60.97;47.28;;;;;;;9.00;61.90;99192.38;4967547;28;20027;-88
2022/02/17 09:05:12;;;;;;;62.78;45.35;;;;;;;9.53;61.91;99257.31;4957164;28;20076;-88
2022/02/17 09:07:38;;;;;;;62.75;42.20;;;;;;;9.06;62.61;99160.06;4958402;28;20514;-88
2022/02/17 09:10:05;;;;;;;57.20;42.20;;;;;;;8.91;61.90;99146.84;4957594;28;20487;-88
2022/02/17 09:12:32;;;;;;;55.47;41.13;;;;;;;9.41;61.73;99206.03;4989766;28;20026;-87
2022/02/17 09:14:58;;;;;;;51.00;37.95;;;;;;;9.51;61.73;99222.41;4976542;28;20034;-87
2022/02/17 09:17:23;;;;;;;54.65;40.60;;;;;;;9.57;61.94;99197.97;4968567;28;20033;-87
2022/02/17 09:19:48;;;;;;;54.47;39.83;;;;;;;8.75;61.72;99075.09;4957356;28;20031;-88
2022/02/17 09:22:14;;;;;;;58.95;45.10;;;;;;;9.36;61.67;99124.06;4957211;28;20085;-87
2022/02/17 09:24:39;;;;;;;51.78;38.20;;;;;;;9.56;61.30;99156.78;4970170;28;20034;-88
2022/02/17 09:27:05;;;;;;;49.60;38.92;;;;;;;10.18;61.13;99266.41;4976634;28;20030;-88
2022/02/17 09:29:30;;;;;;;55.60;40.85;;;;;;;9.98;61.06;99197.56;4976064;28;20035;-87
2022/02/17 09:31:56;;;;;;;60.72;41.65;;;;;;;10.34;61.44;99228.50;4976391;28;20081;-87
2022/02/17 09:34:22;;;;;;;57.78;44.40;;;;;;;10.14;60.41;99186.00;4990437;28;20121;-88
2022/02/17 09:36:47;;;;;;;52.83;40.85;;;;;;;10.29;60.66;99186.81;4963821;28;20026;-87
2022/02/17 09:39:14;;;;;;;47.60;37.58;;;;;;;10.61;60.58;99208.53;4972072;28;20054;-87
2022/02/17 09:41:39;;;;;;;59.00;41.42;;;;;;;9.80;59.95;99067.91;4949222;28;20041;-87
2022/02/17 09:44:08;;;;;;;59.65;43.08;;;;;;;10.06;59.87;99097.22;4956439;28;20035;-88
2022/02/17 09:46:36;;;;;;;53.35;39.88;;;;;;;10.73;59.83;99199.13;4952801;28;20118;-87
2022/02/17 09:49:03;;;;;;;55.30;43.33;;;;;;;10.90;59.72;99213.72;4969713;28;20038;-87
2022/02/17 09:51:31;;;;;;;55.33;41.22;;;;;;;10.95;59.25;99205.22;4959835;28;20144;-87
2022/02/17 09:53:58;;;;;;;58.88;41.65;;;;;;;10.63;59.25;99132.59;4955937;28;20062;-87
2022/02/17 09:56:24;;;;;;;55.90;44.38;;;;;;;10.45;58.81;99090.81;4979128;28;20038;-88
2022/02/17 09:58:53;;;;;;;59.13;43.97;;;;;;;9.91;59.21;98964.59;4966482;28;20037;-90
2022/02/17 10:01:23;;;;;;;57.65;43.40;;;;;;;10.65;58.49;99062.75;4994261;28;20061;-88
2022/02/17 10:03:51;;;;;;;53.10;41.58;;;;;;;10.53;58.58;99019.41;4985250;28;20034;-88
2022/02/17 10:06:20;;;;;;;53.78;41.22;;;;;;;11.07;58.12;99071.63;4968470;28;20042;-92
2022/02/17 10:08:47;;;;;;;52.05;41.88;;;;;;;11.13;58.31;99065.56;4973567;28;20034;-92
2022/02/17 10:11:28;;;;;;;56.05;43.67;;;;;;;10.75;58.21;98988.50;4958186;28;20106;-95
2022/02/17 10:14:04;;;;;;;55.75;44.08;;;;;;;11.72;57.19;99121.44;4957659;28;20035;-89
2022/02/17 10:16:49;;;;;;;54.88;41.97;;;;;;;11.78;57.28;99112.75;4957506;28;20511;-87
2022/02/17 10:19:14;;;;;;;58.55;40.78;;;;;;;11.30;57.37;99026.47;4938035;28;20098;-89
2022/02/17 10:21:40;;;;;;;58.28;43.33;;;;;;;11.53;56.77;99047.31;4972948;28;20034;-88
2022/02/17 10:24:06;;;;;;;50.00;39.00;;;;;;;11.31;57.09;98983.16;4971570;28;20508;-87
2022/02/17 10:26:31;;;;;;;52.20;36.58;;;;;;;12.01;56.88;99078.09;4973161;28;20018;-88
2022/02/17 10:28:59;;;;;;;52.15;40.45;;;;;;;12.02;56.53;99044.50;4973829;28;20034;-85
2022/02/17 10:31:35;;;;;;;46.58;37.20;;;;;;;12.20;56.63;99050.06;4965475;28;20049;-86
2022/02/17 10:34:02;;;;;;;46.17;37.40;;;;;;;12.16;56.57;99027.66;4973382;28;20034;-87
2022/02/17 10:36:42;;;;;;;52.45;40.05;;;;;;;12.21;55.42;99000.56;4989013;28;20718;-85
2022/02/17 10:39:08;;;;;;;48.90;36.90;;;;;;;12.59;55.85;99046.63;4979307;28;20050;-86
2022/02/17 10:41:54;;;;;;;39.33;33.17;;;;;;;12.39;55.36;99004.25;4960090;28;20122;-87
2022/02/17 10:44:28;;;;;;;48.58;38.85;;;;;;;12.76;56.11;99031.19;4955172;28;20196;-87
2022/02/17 10:46:53;;;;;;;51.38;39.20;;;;;;;12.87;55.58;99027.09;4975446;28;20022;-87
2022/02/17 10:49:20;;;;;;;47.90;37.72;;;;;;;12.79;55.42;99016.72;4975027;28;20026;-86
2022/02/17 10:51:48;;;;;;;47.42;36.63;;;;;;;12.84;55.58;98985.13;4974916;28;20054;-87
2022/02/17 10:54:24;;;;;;;45.78;36.38;;;;;;;13.13;55.27;99005.03;4938777;28;20031;-86
2022/02/17 10:56:53;;;;;;;44.67;35.58;;;;;;;12.51;55.62;98892.44;4966707;28;20034;-88
2022/02/17 11:02:05;;;;;;;54.75;41.75;;;;;;;13.32;55.00;98970.56;4992344;28;20041;-86
2022/02/17 11:04:31;;;;;;;49.60;38.15;;;;;;;13.41;54.64;98965.03;4974859;28;20029;-87
2022/02/17 11:06:58;;;;;;;45.65;37.25;;;;;;;13.19;54.61;98924.72;4961603;28;20026;-87
2022/02/17 11:09:24;;;;;;;48.25;36.95;;;;;;;13.15;54.47;98889.03;4973843;28;20046;-86
2022/02/17 11:11:54;;;;;;;51.58;37.97;;;;;;;13.60;54.36;98933.13;4972456;28;20038;-86
2022/02/17 11:14:49;;;;;;;47.42;36.78;;;;;;;13.57;54.34;98930.88;4950370;28;20039;-86
2022/02/17 11:17:15;;;;;;;45.22;35.83;;;;;;;13.64;54.13;98910.44;4958914;28;20053;-87
2022/02/17 11:19:41;;;;;;;44.40;36.05;;;;;;;13.13;54.11;98814.22;4974031;28;20066;-86
2022/02/17 11:22:07;;;;;;;53.15;40.17;;;;;;;13.20;54.04;98812.38;4954767;28;20058;-87
2022/02/17 11:24:50;;;;;;;55.30;41.75;;;;;;;13.85;53.84;98903.19;4956019;28;20041;-87
2022/02/17 11:27:17;;;;;;;52.95;40.90;;;;;;;13.39;53.94;98835.31;4974246;28;20518;-87
2022/02/17 11:29:43;;;;;;;50.53;40.28;;;;;;;13.86;53.83;98900.31;4974369;28;20033;-86
2022/02/17 11:32:16;;;;;;;43.83;33.55;;;;;;;13.28;53.81;98807.63;4974523;28;20023;-86